sensor_id;sensor_type;location;lat;lon;timestamp;P1;durP1;ratioP1;P2;durP2;ratioP2
5491;SDS011;2768;53.540;10.224;2022-10-20T00:05:16;2.10;;;1.40;;
5491;SDS011;2768;53.540;10.224;2022-10-20T00:11:10;1.50;;;1.40;;
5491;SDS011;2768;53.540;10.224;2022-10-20T00:17:06;2.10;;;1.20;;
5491;SDS011;2768;53.540;10.224;2022-10-20T00:22:59;2.03;;;1.30;;
5491;SDS011;2768;53.540;10.224;2022-10-20T00:28:53;1.70;;;1.50;;
5491;SDS011;2768;53.540;10.224;2022-10-20T00:34:48;2.23;;;1.33;;
5491;SDS011;2768;53.540;10.224;2022-10-20T00:40:42;1.33;;;1.23;;
5491;SDS011;2768;53.540;10.224;2022-10-20T00:46:36;1.20;;;1.10;;
5491;SDS011;2768;53.540;10.224;2022-10-20T00:52:32;2.80;;;1.10;;
5491;SDS011;2768;53.540;10.224;2022-10-20T00:58:27;1.63;;;1.10;;
5491;SDS011;2768;53.540;10.224;2022-10-20T01:04:21;1.90;;;1.27;;
5491;SDS011;2768;53.540;10.224;2022-10-20T01:10:16;1.00;;;0.90;;
5491;SDS011;2768;53.540;10.224;2022-10-20T01:16:11;2.90;;;1.40;;
5491;SDS011;2768;53.540;10.224;2022-10-20T01:22:26;1.20;;;1.10;;
5491;SDS011;2768;53.540;10.224;2022-10-20T01:28:36;0.97;;;0.97;;
5491;SDS011;2768;53.540;10.224;2022-10-20T01:34:34;1.30;;;1.20;;
5491;SDS011;2768;53.540;10.224;2022-10-20T01:40:37;1.30;;;1.17;;
5491;SDS011;2768;53.540;10.224;2022-10-20T01:46:37;1.03;;;1.03;;
5491;SDS011;2768;53.540;10.224;2022-10-20T01:52:32;1.20;;;1.20;;
5491;SDS011;2768;53.540;10.224;2022-10-20T01:58:49;1.70;;;1.60;;
5491;SDS011;2768;53.540;10.224;2022-10-20T02:05:15;1.80;;;1.30;;
5491;SDS011;2768;53.540;10.224;2022-10-20T02:11:19;1.40;;;1.30;;
5491;SDS011;2768;53.540;10.224;2022-10-20T02:17:16;1.33;;;1.23;;
5491;SDS011;2768;53.540;10.224;2022-10-20T02:23:13;1.93;;;1.10;;
5491;SDS011;2768;53.540;10.224;2022-10-20T02:29:09;2.40;;;1.47;;
5491;SDS011;2768;53.540;10.224;2022-10-20T02:35:08;2.33;;;1.37;;
5491;SDS011;2768;53.540;10.224;2022-10-20T02:41:06;1.30;;;1.20;;
5491;SDS011;2768;53.540;10.224;2022-10-20T02:46:59;2.57;;;1.40;;
5491;SDS011;2768;53.540;10.224;2022-10-20T02:52:52;2.50;;;1.30;;
5491;SDS011;2768;53.540;10.224;2022-10-20T02:58:47;2.27;;;1.50;;
5491;SDS011;2768;53.540;10.224;2022-10-20T03:04:41;1.67;;;1.50;;
5491;SDS011;2768;53.540;10.224;2022-10-20T03:10:34;1.53;;;1.43;;
5491;SDS011;2768;53.540;10.224;2022-10-20T03:16:29;1.57;;;1.37;;
5491;SDS011;2768;53.540;10.224;2022-10-20T03:22:22;1.50;;;1.40;;
5491;SDS011;2768;53.540;10.224;2022-10-20T03:28:16;1.40;;;1.27;;
5491;SDS011;2768;53.540;10.224;2022-10-20T03:34:10;1.40;;;1.30;;
5491;SDS011;2768;53.540;10.224;2022-10-20T03:40:04;1.87;;;1.40;;
5491;SDS011;2768;53.540;10.224;2022-10-20T03:46:01;2.27;;;1.50;;
5491;SDS011;2768;53.540;10.224;2022-10-20T03:51:57;1.50;;;1.40;;
5491;SDS011;2768;53.540;10.224;2022-10-20T03:57:51;1.40;;;1.30;;
5491;SDS011;2768;53.540;10.224;2022-10-20T04:03:44;2.40;;;1.50;;
5491;SDS011;2768;53.540;10.224;2022-10-20T04:09:38;1.83;;;1.30;;
5491;SDS011;2768;53.540;10.224;2022-10-20T04:15:32;1.67;;;1.57;;
5491;SDS011;2768;53.540;10.224;2022-10-20T04:21:25;1.97;;;1.47;;
5491;SDS011;2768;53.540;10.224;2022-10-20T04:27:19;1.90;;;1.80;;
5491;SDS011;2768;53.540;10.224;2022-10-20T04:33:13;1.50;;;1.40;;
5491;SDS011;2768;53.540;10.224;2022-10-20T04:39:06;1.90;;;1.60;;
5491;SDS011;2768;53.540;10.224;2022-10-20T04:45:01;1.60;;;1.50;;
5491;SDS011;2768;53.540;10.224;2022-10-20T04:50:58;1.67;;;1.57;;
5491;SDS011;2768;53.540;10.224;2022-10-20T04:56:52;2.10;;;1.57;;
5491;SDS011;2768;53.540;10.224;2022-10-20T05:02:47;2.27;;;2.00;;
5491;SDS011;2768;53.540;10.224;2022-10-20T05:08:40;2.00;;;1.87;;
5491;SDS011;2768;53.540;10.224;2022-10-20T05:14:35;3.77;;;2.70;;
5491;SDS011;2768;53.540;10.224;2022-10-20T05:20:30;2.43;;;1.90;;
5491;SDS011;2768;53.540;10.224;2022-10-20T05:26:36;2.20;;;2.00;;
5491;SDS011;2768;53.540;10.224;2022-10-20T05:32:29;2.50;;;1.90;;
5491;SDS011;2768;53.540;10.224;2022-10-20T05:38:25;3.00;;;2.20;;
5491;SDS011;2768;53.540;10.224;2022-10-20T05:44:18;3.63;;;2.50;;
5491;SDS011;2768;53.540;10.224;2022-10-20T05:50:12;2.60;;;2.40;;
5491;SDS011;2768;53.540;10.224;2022-10-20T05:56:07;3.10;;;2.60;;
5491;SDS011;2768;53.540;10.224;2022-10-20T06:02:02;5.50;;;2.30;;
5491;SDS011;2768;53.540;10.224;2022-10-20T06:07:55;2.43;;;2.30;;
5491;SDS011;2768;53.540;10.224;2022-10-20T06:13:50;2.90;;;2.60;;
5491;SDS011;2768;53.540;10.224;2022-10-20T06:19:44;3.20;;;2.60;;
5491;SDS011;2768;53.540;10.224;2022-10-20T06:25:37;4.67;;;2.80;;
5491;SDS011;2768;53.540;10.224;2022-10-20T06:31:32;4.07;;;2.80;;
5491;SDS011;2768;53.540;10.224;2022-10-20T06:37:27;2.33;;;2.23;;
5491;SDS011;2768;53.540;10.224;2022-10-20T06:43:20;4.10;;;2.80;;
5491;SDS011;2768;53.540;10.224;2022-10-20T06:49:15;2.40;;;2.20;;
5491;SDS011;2768;53.540;10.224;2022-10-20T06:55:08;2.07;;;1.90;;
5491;SDS011;2768;53.540;10.224;2022-10-20T07:01:02;3.93;;;3.00;;
5491;SDS011;2768;53.540;10.224;2022-10-20T07:07:03;4.50;;;2.80;;
5491;SDS011;2768;53.540;10.224;2022-10-20T07:12:56;3.10;;;2.73;;
5491;SDS011;2768;53.540;10.224;2022-10-20T07:18:49;2.50;;;2.30;;
5491;SDS011;2768;53.540;10.224;2022-10-20T07:24:44;4.77;;;2.60;;
5491;SDS011;2768;53.540;10.224;2022-10-20T07:30:37;2.87;;;2.30;;
5491;SDS011;2768;53.540;10.224;2022-10-20T07:36:32;2.80;;;2.50;;
5491;SDS011;2768;53.540;10.224;2022-10-20T07:42:28;2.40;;;2.20;;
5491;SDS011;2768;53.540;10.224;2022-10-20T07:48:22;3.20;;;2.17;;
5491;SDS011;2768;53.540;10.224;2022-10-20T07:54:15;4.10;;;2.20;;
5491;SDS011;2768;53.540;10.224;2022-10-20T08:00:11;3.10;;;2.10;;
5491;SDS011;2768;53.540;10.224;2022-10-20T08:06:05;3.30;;;1.77;;
5491;SDS011;2768;53.540;10.224;2022-10-20T08:11:59;2.27;;;2.07;;
5491;SDS011;2768;53.540;10.224;2022-10-20T08:17:53;3.23;;;2.03;;
5491;SDS011;2768;53.540;10.224;2022-10-20T08:23:48;3.53;;;2.97;;
5491;SDS011;2768;53.540;10.224;2022-10-20T08:29:42;1.90;;;1.70;;
5491;SDS011;2768;53.540;10.224;2022-10-20T08:35:52;2.73;;;1.97;;
5491;SDS011;2768;53.540;10.224;2022-10-20T08:41:46;2.53;;;2.00;;
5491;SDS011;2768;53.540;10.224;2022-10-20T08:48:02;7.30;;;1.83;;
5491;SDS011;2768;53.540;10.224;2022-10-20T08:53:57;3.97;;;1.80;;
5491;SDS011;2768;53.540;10.224;2022-10-20T08:59:53;2.43;;;1.70;;
5491;SDS011;2768;53.540;10.224;2022-10-20T09:05:48;1.93;;;1.83;;
5491;SDS011;2768;53.540;10.224;2022-10-20T09:11:47;2.07;;;1.90;;
5491;SDS011;2768;53.540;10.224;2022-10-20T09:17:42;5.43;;;1.80;;
5491;SDS011;2768;53.540;10.224;2022-10-20T09:23:39;3.60;;;2.63;;
5491;SDS011;2768;53.540;10.224;2022-10-20T09:29:35;2.40;;;2.20;;
5491;SDS011;2768;53.540;10.224;2022-10-20T09:35:31;3.17;;;1.87;;
5491;SDS011;2768;53.540;10.224;2022-10-20T09:41:28;2.80;;;2.10;;
5491;SDS011;2768;53.540;10.224;2022-10-20T09:47:25;2.80;;;1.90;;
5491;SDS011;2768;53.540;10.224;2022-10-20T09:53:20;2.40;;;1.67;;
5491;SDS011;2768;53.540;10.224;2022-10-20T09:59:18;4.30;;;2.10;;
5491;SDS011;2768;53.540;10.224;2022-10-20T10:05:16;2.53;;;2.10;;
5491;SDS011;2768;53.540;10.224;2022-10-20T10:11:13;3.13;;;2.17;;
5491;SDS011;2768;53.540;10.224;2022-10-20T10:17:08;2.27;;;2.10;;
5491;SDS011;2768;53.540;10.224;2022-10-20T10:23:08;3.93;;;2.30;;
5491;SDS011;2768;53.540;10.224;2022-10-20T10:29:15;2.03;;;1.80;;
5491;SDS011;2768;53.540;10.224;2022-10-20T10:35:15;2.53;;;2.33;;
5491;SDS011;2768;53.540;10.224;2022-10-20T10:41:16;4.07;;;2.43;;
5491;SDS011;2768;53.540;10.224;2022-10-20T10:47:21;4.87;;;2.50;;
5491;SDS011;2768;53.540;10.224;2022-10-20T10:53:31;2.30;;;2.10;;
5491;SDS011;2768;53.540;10.224;2022-10-20T10:59:38;3.87;;;2.20;;
5491;SDS011;2768;53.540;10.224;2022-10-20T11:05:40;3.23;;;2.30;;
5491;SDS011;2768;53.540;10.224;2022-10-20T11:11:46;5.57;;;2.13;;
5491;SDS011;2768;53.540;10.224;2022-10-20T11:18:07;4.03;;;2.43;;
5491;SDS011;2768;53.540;10.224;2022-10-20T11:24:14;3.70;;;2.47;;
5491;SDS011;2768;53.540;10.224;2022-10-20T11:30:16;2.37;;;2.10;;
5491;SDS011;2768;53.540;10.224;2022-10-20T11:36:15;3.07;;;2.57;;
5491;SDS011;2768;53.540;10.224;2022-10-20T11:42:14;5.20;;;2.57;;
5491;SDS011;2768;53.540;10.224;2022-10-20T11:48:19;3.57;;;3.17;;
5491;SDS011;2768;53.540;10.224;2022-10-20T11:54:22;2.90;;;2.43;;
5491;SDS011;2768;53.540;10.224;2022-10-20T12:06:56;2.73;;;2.53;;
5491;SDS011;2768;53.540;10.224;2022-10-20T12:13:22;2.80;;;2.60;;
5491;SDS011;2768;53.540;10.224;2022-10-20T12:19:21;3.57;;;3.27;;
5491;SDS011;2768;53.540;10.224;2022-10-20T12:25:31;2.80;;;2.60;;
5491;SDS011;2768;53.540;10.224;2022-10-20T12:37:55;3.57;;;3.10;;
5491;SDS011;2768;53.540;10.224;2022-10-20T12:43:52;4.03;;;2.77;;
5491;SDS011;2768;53.540;10.224;2022-10-20T12:49:51;3.10;;;2.63;;
5491;SDS011;2768;53.540;10.224;2022-10-20T12:55:52;2.97;;;2.77;;
5491;SDS011;2768;53.540;10.224;2022-10-20T13:08:21;3.23;;;2.93;;
5491;SDS011;2768;53.540;10.224;2022-10-20T13:14:28;3.30;;;2.83;;
5491;SDS011;2768;53.540;10.224;2022-10-20T13:20:39;3.20;;;2.90;;
5491;SDS011;2768;53.540;10.224;2022-10-20T13:26:39;3.93;;;2.60;;
5491;SDS011;2768;53.540;10.224;2022-10-20T13:32:43;4.50;;;3.50;;
5491;SDS011;2768;53.540;10.224;2022-10-20T13:39:03;3.70;;;3.10;;
5491;SDS011;2768;53.540;10.224;2022-10-20T13:45:07;3.93;;;3.40;;
5491;SDS011;2768;53.540;10.224;2022-10-20T13:51:12;3.33;;;3.00;;
5491;SDS011;2768;53.540;10.224;2022-10-20T13:57:20;4.90;;;2.80;;
5491;SDS011;2768;53.540;10.224;2022-10-20T14:03:17;2.97;;;2.77;;
5491;SDS011;2768;53.540;10.224;2022-10-20T14:09:13;4.27;;;3.00;;
5491;SDS011;2768;53.540;10.224;2022-10-20T14:15:10;3.10;;;2.90;;
5491;SDS011;2768;53.540;10.224;2022-10-20T14:21:13;3.93;;;3.23;;
5491;SDS011;2768;53.540;10.224;2022-10-20T14:27:12;3.57;;;3.27;;
5491;SDS011;2768;53.540;10.224;2022-10-20T14:33:11;3.50;;;3.20;;
5491;SDS011;2768;53.540;10.224;2022-10-20T14:39:16;6.00;;;3.30;;
5491;SDS011;2768;53.540;10.224;2022-10-20T14:45:18;4.03;;;3.63;;
5491;SDS011;2768;53.540;10.224;2022-10-20T14:51:29;3.57;;;3.27;;
5491;SDS011;2768;53.540;10.224;2022-10-20T14:57:35;6.03;;;3.03;;
5491;SDS011;2768;53.540;10.224;2022-10-20T15:03:35;4.43;;;3.47;;
5491;SDS011;2768;53.540;10.224;2022-10-20T15:09:29;3.90;;;3.50;;
5491;SDS011;2768;53.540;10.224;2022-10-20T15:15:26;3.30;;;3.00;;
5491;SDS011;2768;53.540;10.224;2022-10-20T15:21:22;5.60;;;3.00;;
5491;SDS011;2768;53.540;10.224;2022-10-20T15:27:16;3.83;;;3.03;;
5491;SDS011;2768;53.540;10.224;2022-10-20T15:33:09;3.60;;;3.10;;
5491;SDS011;2768;53.540;10.224;2022-10-20T15:39:04;3.97;;;3.67;;
5491;SDS011;2768;53.540;10.224;2022-10-20T15:44:58;4.30;;;3.17;;
5491;SDS011;2768;53.540;10.224;2022-10-20T15:50:52;4.43;;;3.50;;
5491;SDS011;2768;53.540;10.224;2022-10-20T15:56:48;6.40;;;3.87;;
5491;SDS011;2768;53.540;10.224;2022-10-20T16:02:41;4.30;;;3.20;;
5491;SDS011;2768;53.540;10.224;2022-10-20T16:08:35;5.40;;;3.40;;
5491;SDS011;2768;53.540;10.224;2022-10-20T16:14:30;3.97;;;3.67;;
5491;SDS011;2768;53.540;10.224;2022-10-20T16:20:23;4.10;;;3.20;;
5491;SDS011;2768;53.540;10.224;2022-10-20T16:26:17;3.63;;;3.27;;
5491;SDS011;2768;53.540;10.224;2022-10-20T16:32:12;7.00;;;3.77;;
5491;SDS011;2768;53.540;10.224;2022-10-20T16:38:06;4.03;;;3.63;;
5491;SDS011;2768;53.540;10.224;2022-10-20T16:43:59;3.60;;;3.30;;
5491;SDS011;2768;53.540;10.224;2022-10-20T16:49:54;4.00;;;3.50;;
5491;SDS011;2768;53.540;10.224;2022-10-20T16:55:51;5.23;;;4.20;;
5491;SDS011;2768;53.540;10.224;2022-10-20T17:01:45;3.73;;;3.43;;
5491;SDS011;2768;53.540;10.224;2022-10-20T17:07:39;3.63;;;3.13;;
5491;SDS011;2768;53.540;10.224;2022-10-20T17:13:33;4.17;;;3.67;;
5491;SDS011;2768;53.540;10.224;2022-10-20T17:19:27;4.70;;;3.30;;
5491;SDS011;2768;53.540;10.224;2022-10-20T17:25:22;3.10;;;2.80;;
5491;SDS011;2768;53.540;10.224;2022-10-20T17:31:16;4.17;;;3.40;;
5491;SDS011;2768;53.540;10.224;2022-10-20T17:37:09;4.33;;;3.47;;
5491;SDS011;2768;53.540;10.224;2022-10-20T17:43:04;4.87;;;3.53;;
5491;SDS011;2768;53.540;10.224;2022-10-20T17:48:57;6.77;;;4.07;;
5491;SDS011;2768;53.540;10.224;2022-10-20T17:54:52;3.37;;;3.07;;
5491;SDS011;2768;53.540;10.224;2022-10-20T18:00:46;3.47;;;3.17;;
5491;SDS011;2768;53.540;10.224;2022-10-20T18:06:47;5.30;;;4.37;;
5491;SDS011;2768;53.540;10.224;2022-10-20T18:12:41;4.77;;;4.27;;
5491;SDS011;2768;53.540;10.224;2022-10-20T18:18:35;5.10;;;4.10;;
5491;SDS011;2768;53.540;10.224;2022-10-20T18:24:29;3.93;;;3.33;;
5491;SDS011;2768;53.540;10.224;2022-10-20T18:30:23;4.20;;;3.80;;
5491;SDS011;2768;53.540;10.224;2022-10-20T18:36:18;3.60;;;3.30;;
5491;SDS011;2768;53.540;10.224;2022-10-20T18:42:11;4.37;;;3.70;;
5491;SDS011;2768;53.540;10.224;2022-10-20T18:48:05;4.23;;;3.80;;
5491;SDS011;2768;53.540;10.224;2022-10-20T18:53:59;4.77;;;3.90;;
5491;SDS011;2768;53.540;10.224;2022-10-20T18:59:53;4.13;;;3.43;;
5491;SDS011;2768;53.540;10.224;2022-10-20T19:05:47;3.70;;;3.33;;
5491;SDS011;2768;53.540;10.224;2022-10-20T19:11:42;5.13;;;3.47;;
5491;SDS011;2768;53.540;10.224;2022-10-20T19:17:36;4.10;;;3.70;;
5491;SDS011;2768;53.540;10.224;2022-10-20T19:23:29;6.33;;;4.33;;
5491;SDS011;2768;53.540;10.224;2022-10-20T19:29:24;3.80;;;3.47;;
5491;SDS011;2768;53.540;10.224;2022-10-20T19:35:18;5.10;;;3.70;;
5491;SDS011;2768;53.540;10.224;2022-10-20T19:41:12;6.23;;;3.53;;
5491;SDS011;2768;53.540;10.224;2022-10-20T19:47:08;6.40;;;3.77;;
5491;SDS011;2768;53.540;10.224;2022-10-20T19:53:02;4.00;;;3.70;;
5491;SDS011;2768;53.540;10.224;2022-10-20T19:58:55;4.97;;;3.97;;
5491;SDS011;2768;53.540;10.224;2022-10-20T20:04:50;4.90;;;3.60;;
5491;SDS011;2768;53.540;10.224;2022-10-20T20:10:49;3.90;;;3.60;;
5491;SDS011;2768;53.540;10.224;2022-10-20T20:16:43;4.70;;;3.80;;
5491;SDS011;2768;53.540;10.224;2022-10-20T20:22:39;4.20;;;3.80;;
5491;SDS011;2768;53.540;10.224;2022-10-20T20:28:32;4.10;;;3.77;;
5491;SDS011;2768;53.540;10.224;2022-10-20T20:34:25;3.90;;;3.60;;
5491;SDS011;2768;53.540;10.224;2022-10-20T20:40:20;4.10;;;3.70;;
5491;SDS011;2768;53.540;10.224;2022-10-20T20:46:14;3.80;;;3.30;;
5491;SDS011;2768;53.540;10.224;2022-10-20T20:52:09;3.83;;;3.30;;
5491;SDS011;2768;53.540;10.224;2022-10-20T20:58:04;4.37;;;3.97;;
5491;SDS011;2768;53.540;10.224;2022-10-20T21:03:58;4.27;;;3.87;;
5491;SDS011;2768;53.540;10.224;2022-10-20T21:09:54;4.30;;;4.00;;
5491;SDS011;2768;53.540;10.224;2022-10-20T21:15:49;4.37;;;3.93;;
5491;SDS011;2768;53.540;10.224;2022-10-20T21:21:42;5.00;;;3.63;;
5491;SDS011;2768;53.540;10.224;2022-10-20T21:27:41;4.10;;;3.70;;
5491;SDS011;2768;53.540;10.224;2022-10-20T21:33:36;4.87;;;4.10;;
5491;SDS011;2768;53.540;10.224;2022-10-20T21:39:30;5.90;;;3.60;;
5491;SDS011;2768;53.540;10.224;2022-10-20T21:45:23;6.67;;;4.10;;
5491;SDS011;2768;53.540;10.224;2022-10-20T21:51:18;4.23;;;3.93;;
5491;SDS011;2768;53.540;10.224;2022-10-20T21:57:13;4.40;;;4.00;;
5491;SDS011;2768;53.540;10.224;2022-10-20T22:03:06;6.23;;;4.00;;
5491;SDS011;2768;53.540;10.224;2022-10-20T22:09:01;4.20;;;3.90;;
5491;SDS011;2768;53.540;10.224;2022-10-20T22:14:55;5.57;;;4.53;;
5491;SDS011;2768;53.540;10.224;2022-10-20T22:20:48;4.03;;;3.30;;
5491;SDS011;2768;53.540;10.224;2022-10-20T22:26:43;5.03;;;4.50;;
5491;SDS011;2768;53.540;10.224;2022-10-20T22:32:36;5.33;;;4.27;;
5491;SDS011;2768;53.540;10.224;2022-10-20T22:38:30;3.97;;;3.67;;
5491;SDS011;2768;53.540;10.224;2022-10-20T22:44:25;8.43;;;4.67;;
5491;SDS011;2768;53.540;10.224;2022-10-20T22:50:18;4.80;;;4.30;;
5491;SDS011;2768;53.540;10.224;2022-10-20T22:56:12;5.23;;;4.70;;
5491;SDS011;2768;53.540;10.224;2022-10-20T23:02:08;5.10;;;4.27;;
5491;SDS011;2768;53.540;10.224;2022-10-20T23:08:02;6.80;;;4.50;;
5491;SDS011;2768;53.540;10.224;2022-10-20T23:13:55;4.90;;;4.50;;
5491;SDS011;2768;53.540;10.224;2022-10-20T23:19:50;5.47;;;4.80;;
5491;SDS011;2768;53.540;10.224;2022-10-20T23:25:43;6.57;;;4.67;;
5491;SDS011;2768;53.540;10.224;2022-10-20T23:31:36;4.43;;;4.10;;
5491;SDS011;2768;53.540;10.224;2022-10-20T23:37:31;5.33;;;4.83;;
5491;SDS011;2768;53.540;10.224;2022-10-20T23:43:25;5.93;;;5.37;;
5491;SDS011;2768;53.540;10.224;2022-10-20T23:49:24;5.87;;;5.27;;
5491;SDS011;2768;53.540;10.224;2022-10-20T23:55:18;5.40;;;4.90;;
